sensor_id;sensor_type;location;lat;lon;timestamp;P1;durP1;ratioP1;P2;durP2;ratioP2
51495;SDS011;37572;52.094;4.870;2024-03-22T00:01:00;47.83;;;22.50;;
51495;SDS011;37572;52.094;4.870;2024-03-22T00:03:25;49.55;;;23.33;;
51495;SDS011;37572;52.094;4.870;2024-03-22T00:05:51;47.75;;;26.00;;
51495;SDS011;37572;52.094;4.870;2024-03-22T00:08:16;39.27;;;21.43;;
51495;SDS011;37572;52.094;4.870;2024-03-22T00:10:42;46.83;;;22.93;;
51495;SDS011;37572;52.094;4.870;2024-03-22T00:13:07;43.17;;;24.53;;
51495;SDS011;37572;52.094;4.870;2024-03-22T00:15:32;42.83;;;19.90;;
51495;SDS011;37572;52.094;4.870;2024-03-22T00:17:57;44.73;;;21.43;;
51495;SDS011;37572;52.094;4.870;2024-03-22T00:20:23;43.60;;;21.57;;
51495;SDS011;37572;52.094;4.870;2024-03-22T00:22:48;42.57;;;19.77;;
51495;SDS011;37572;52.094;4.870;2024-03-22T00:25:13;40.47;;;19.53;;
51495;SDS011;37572;52.094;4.870;2024-03-22T00:27:39;43.05;;;21.60;;
51495;SDS011;37572;52.094;4.870;2024-03-22T00:30:04;40.97;;;20.53;;
51495;SDS011;37572;52.094;4.870;2024-03-22T00:32:30;44.58;;;20.88;;
51495;SDS011;37572;52.094;4.870;2024-03-22T00:34:55;42.67;;;21.77;;
51495;SDS011;37572;52.094;4.870;2024-03-22T00:37:20;44.03;;;19.90;;
51495;SDS011;37572;52.094;4.870;2024-03-22T00:39:46;45.28;;;20.45;;
51495;SDS011;37572;52.094;4.870;2024-03-22T00:42:11;46.57;;;23.10;;
51495;SDS011;37572;52.094;4.870;2024-03-22T00:44:36;44.23;;;23.13;;
51495;SDS011;37572;52.094;4.870;2024-03-22T00:47:02;45.80;;;19.37;;
51495;SDS011;37572;52.094;4.870;2024-03-22T00:49:28;42.05;;;20.38;;
51495;SDS011;37572;52.094;4.870;2024-03-22T00:51:53;44.00;;;18.83;;
51495;SDS011;37572;52.094;4.870;2024-03-22T00:54:21;42.47;;;19.98;;
51495;SDS011;37572;52.094;4.870;2024-03-22T00:56:46;45.38;;;19.88;;
51495;SDS011;37572;52.094;4.870;2024-03-22T00:59:12;43.95;;;20.60;;
51495;SDS011;37572;52.094;4.870;2024-03-22T01:01:37;44.92;;;20.85;;
51495;SDS011;37572;52.094;4.870;2024-03-22T01:04:03;44.40;;;21.60;;
51495;SDS011;37572;52.094;4.870;2024-03-22T01:06:28;39.33;;;20.30;;
51495;SDS011;37572;52.094;4.870;2024-03-22T01:08:54;39.47;;;19.20;;
51495;SDS011;37572;52.094;4.870;2024-03-22T01:11:19;47.17;;;21.17;;
51495;SDS011;37572;52.094;4.870;2024-03-22T01:13:44;44.22;;;20.17;;
51495;SDS011;37572;52.094;4.870;2024-03-22T01:16:09;45.43;;;21.03;;
51495;SDS011;37572;52.094;4.870;2024-03-22T01:18:38;39.53;;;20.03;;
51495;SDS011;37572;52.094;4.870;2024-03-22T01:21:03;44.22;;;20.38;;
51495;SDS011;37572;52.094;4.870;2024-03-22T01:23:30;45.42;;;21.40;;
51495;SDS011;37572;52.094;4.870;2024-03-22T01:25:55;48.97;;;22.52;;
51495;SDS011;37572;52.094;4.870;2024-03-22T01:28:20;48.97;;;22.53;;
51495;SDS011;37572;52.094;4.870;2024-03-22T01:30:46;50.38;;;23.63;;
51495;SDS011;37572;52.094;4.870;2024-03-22T01:33:11;49.60;;;22.73;;
51495;SDS011;37572;52.094;4.870;2024-03-22T01:35:36;52.30;;;21.97;;
51495;SDS011;37572;52.094;4.870;2024-03-22T01:38:02;51.83;;;23.57;;
51495;SDS011;37572;52.094;4.870;2024-03-22T01:40:27;58.78;;;24.15;;
51495;SDS011;37572;52.094;4.870;2024-03-22T01:42:53;53.10;;;23.80;;
51495;SDS011;37572;52.094;4.870;2024-03-22T01:45:20;54.80;;;25.60;;
51495;SDS011;37572;52.094;4.870;2024-03-22T01:47:49;59.55;;;25.35;;
51495;SDS011;37572;52.094;4.870;2024-03-22T01:50:15;52.65;;;24.27;;
51495;SDS011;37572;52.094;4.870;2024-03-22T01:52:40;58.45;;;25.58;;
51495;SDS011;37572;52.094;4.870;2024-03-22T01:55:06;56.05;;;25.08;;
51495;SDS011;37572;52.094;4.870;2024-03-22T01:57:32;60.60;;;25.00;;
51495;SDS011;37572;52.094;4.870;2024-03-22T01:59:58;59.83;;;25.42;;
51495;SDS011;37572;52.094;4.870;2024-03-22T02:02:24;57.90;;;25.42;;
51495;SDS011;37572;52.094;4.870;2024-03-22T02:04:50;58.05;;;24.38;;
51495;SDS011;37572;52.094;4.870;2024-03-22T02:07:16;51.15;;;22.50;;
51495;SDS011;37572;52.094;4.870;2024-03-22T02:09:41;52.83;;;23.27;;
51495;SDS011;37572;52.094;4.870;2024-03-22T02:12:07;58.65;;;23.65;;
51495;SDS011;37572;52.094;4.870;2024-03-22T02:14:33;49.42;;;21.75;;
51495;SDS011;37572;52.094;4.870;2024-03-22T02:16:58;49.60;;;21.07;;
51495;SDS011;37572;52.094;4.870;2024-03-22T02:19:24;50.90;;;20.85;;
51495;SDS011;37572;52.094;4.870;2024-03-22T02:21:49;50.10;;;22.60;;
51495;SDS011;37572;52.094;4.870;2024-03-22T02:24:14;51.70;;;21.33;;
51495;SDS011;37572;52.094;4.870;2024-03-22T02:26:40;50.90;;;21.90;;
51495;SDS011;37572;52.094;4.870;2024-03-22T02:29:05;48.87;;;20.77;;
51495;SDS011;37572;52.094;4.870;2024-03-22T02:31:30;53.97;;;22.27;;
51495;SDS011;37572;52.094;4.870;2024-03-22T02:33:57;53.90;;;21.63;;
51495;SDS011;37572;52.094;4.870;2024-03-22T02:36:22;54.88;;;22.58;;
51495;SDS011;37572;52.094;4.870;2024-03-22T02:38:48;53.20;;;20.47;;
51495;SDS011;37572;52.094;4.870;2024-03-22T02:41:13;46.80;;;19.60;;
51495;SDS011;37572;52.094;4.870;2024-03-22T02:43:38;45.10;;;18.55;;
51495;SDS011;37572;52.094;4.870;2024-03-22T02:46:03;42.17;;;19.33;;
51495;SDS011;37572;52.094;4.870;2024-03-22T02:48:29;42.15;;;18.90;;
51495;SDS011;37572;52.094;4.870;2024-03-22T02:50:56;38.42;;;16.50;;
51495;SDS011;37572;52.094;4.870;2024-03-22T02:53:22;40.38;;;17.90;;
51495;SDS011;37572;52.094;4.870;2024-03-22T02:55:47;38.03;;;17.70;;
51495;SDS011;37572;52.094;4.870;2024-03-22T02:58:12;38.47;;;17.03;;
51495;SDS011;37572;52.094;4.870;2024-03-22T03:00:38;42.60;;;18.73;;
51495;SDS011;37572;52.094;4.870;2024-03-22T03:03:06;39.00;;;18.15;;
51495;SDS011;37572;52.094;4.870;2024-03-22T03:05:32;41.13;;;18.98;;
51495;SDS011;37572;52.094;4.870;2024-03-22T03:07:57;44.45;;;19.50;;
51495;SDS011;37572;52.094;4.870;2024-03-22T03:10:23;40.22;;;17.63;;
51495;SDS011;37572;52.094;4.870;2024-03-22T03:12:48;41.30;;;18.40;;
51495;SDS011;37572;52.094;4.870;2024-03-22T03:15:13;42.20;;;17.90;;
51495;SDS011;37572;52.094;4.870;2024-03-22T03:17:39;37.13;;;17.17;;
51495;SDS011;37572;52.094;4.870;2024-03-22T03:20:04;32.90;;;15.73;;
51495;SDS011;37572;52.094;4.870;2024-03-22T03:22:35;41.00;;;18.80;;
51495;SDS011;37572;52.094;4.870;2024-03-22T03:25:00;37.35;;;16.48;;
51495;SDS011;37572;52.094;4.870;2024-03-22T03:27:26;39.73;;;17.60;;
51495;SDS011;37572;52.094;4.870;2024-03-22T03:29:51;41.38;;;17.33;;
51495;SDS011;37572;52.094;4.870;2024-03-22T03:32:17;39.40;;;16.17;;
51495;SDS011;37572;52.094;4.870;2024-03-22T03:34:42;39.40;;;17.03;;
51495;SDS011;37572;52.094;4.870;2024-03-22T03:37:07;43.97;;;18.53;;
51495;SDS011;37572;52.094;4.870;2024-03-22T03:39:32;42.33;;;18.07;;
51495;SDS011;37572;52.094;4.870;2024-03-22T03:41:58;35.63;;;17.27;;
51495;SDS011;37572;52.094;4.870;2024-03-22T03:44:23;39.80;;;17.53;;
51495;SDS011;37572;52.094;4.870;2024-03-22T03:46:48;41.23;;;17.63;;
51495;SDS011;37572;52.094;4.870;2024-03-22T03:49:13;37.63;;;15.90;;
51495;SDS011;37572;52.094;4.870;2024-03-22T03:51:39;41.60;;;17.43;;
51495;SDS011;37572;52.094;4.870;2024-03-22T03:54:04;38.00;;;16.63;;
51495;SDS011;37572;52.094;4.870;2024-03-22T03:56:29;43.13;;;18.40;;
51495;SDS011;37572;52.094;4.870;2024-03-22T03:58:55;35.50;;;15.33;;
51495;SDS011;37572;52.094;4.870;2024-03-22T04:01:20;36.55;;;16.02;;
51495;SDS011;37572;52.094;4.870;2024-03-22T04:03:48;37.45;;;15.35;;
51495;SDS011;37572;52.094;4.870;2024-03-22T04:06:13;37.28;;;14.98;;
51495;SDS011;37572;52.094;4.870;2024-03-22T04:08:39;33.77;;;16.70;;
51495;SDS011;37572;52.094;4.870;2024-03-22T04:11:04;35.80;;;15.20;;
51495;SDS011;37572;52.094;4.870;2024-03-22T04:13:29;34.50;;;14.85;;
51495;SDS011;37572;52.094;4.870;2024-03-22T04:15:58;33.13;;;14.57;;
51495;SDS011;37572;52.094;4.870;2024-03-22T04:18:23;31.70;;;14.48;;
51495;SDS011;37572;52.094;4.870;2024-03-22T04:20:55;33.23;;;14.33;;
51495;SDS011;37572;52.094;4.870;2024-03-22T04:23:21;36.78;;;15.00;;
51495;SDS011;37572;52.094;4.870;2024-03-22T04:28:18;34.05;;;14.40;;
51495;SDS011;37572;52.094;4.870;2024-03-22T04:30:43;34.35;;;15.25;;
51495;SDS011;37572;52.094;4.870;2024-03-22T04:33:09;30.77;;;13.80;;
51495;SDS011;37572;52.094;4.870;2024-03-22T04:35:34;33.23;;;13.30;;
51495;SDS011;37572;52.094;4.870;2024-03-22T04:37:59;32.50;;;13.03;;
51495;SDS011;37572;52.094;4.870;2024-03-22T04:40:24;32.47;;;13.93;;
51495;SDS011;37572;52.094;4.870;2024-03-22T04:42:50;28.98;;;12.75;;
51495;SDS011;37572;52.094;4.870;2024-03-22T04:45:15;30.37;;;12.60;;
51495;SDS011;37572;52.094;4.870;2024-03-22T04:47:41;28.40;;;12.43;;
51495;SDS011;37572;52.094;4.870;2024-03-22T04:50:08;31.25;;;12.75;;
51495;SDS011;37572;52.094;4.870;2024-03-22T04:52:34;30.50;;;12.50;;
51495;SDS011;37572;52.094;4.870;2024-03-22T04:54:59;30.57;;;12.83;;
51495;SDS011;37572;52.094;4.870;2024-03-22T04:57:26;32.58;;;14.38;;
51495;SDS011;37572;52.094;4.870;2024-03-22T04:59:52;29.97;;;13.30;;
51495;SDS011;37572;52.094;4.870;2024-03-22T05:02:17;28.70;;;12.60;;
51495;SDS011;37572;52.094;4.870;2024-03-22T05:04:42;32.63;;;14.30;;
51495;SDS011;37572;52.094;4.870;2024-03-22T05:07:08;30.47;;;14.20;;
51495;SDS011;37572;52.094;4.870;2024-03-22T05:09:33;27.20;;;12.97;;
51495;SDS011;37572;52.094;4.870;2024-03-22T05:11:58;28.00;;;13.13;;
51495;SDS011;37572;52.094;4.870;2024-03-22T05:14:23;31.00;;;15.23;;
51495;SDS011;37572;52.094;4.870;2024-03-22T05:16:49;35.17;;;13.40;;
51495;SDS011;37572;52.094;4.870;2024-03-22T05:19:14;28.60;;;12.70;;
51495;SDS011;37572;52.094;4.870;2024-03-22T05:21:39;29.73;;;12.35;;
51495;SDS011;37572;52.094;4.870;2024-03-22T05:24:06;28.57;;;11.47;;
51495;SDS011;37572;52.094;4.870;2024-03-22T05:26:32;27.27;;;11.60;;
51495;SDS011;37572;52.094;4.870;2024-03-22T05:29:01;31.45;;;13.05;;
51495;SDS011;37572;52.094;4.870;2024-03-22T05:31:27;27.38;;;12.45;;
51495;SDS011;37572;52.094;4.870;2024-03-22T05:33:53;25.75;;;11.70;;
51495;SDS011;37572;52.094;4.870;2024-03-22T05:36:18;28.80;;;12.63;;
51495;SDS011;37572;52.094;4.870;2024-03-22T05:38:43;33.53;;;12.13;;
51495;SDS011;37572;52.094;4.870;2024-03-22T05:41:09;31.60;;;12.55;;
51495;SDS011;37572;52.094;4.870;2024-03-22T05:43:34;32.20;;;12.45;;
51495;SDS011;37572;52.094;4.870;2024-03-22T05:46:00;25.73;;;12.00;;
51495;SDS011;37572;52.094;4.870;2024-03-22T05:48:25;29.50;;;13.73;;
51495;SDS011;37572;52.094;4.870;2024-03-22T05:50:50;30.58;;;12.88;;
51495;SDS011;37572;52.094;4.870;2024-03-22T05:53:17;29.45;;;13.95;;
51495;SDS011;37572;52.094;4.870;2024-03-22T05:55:43;28.67;;;12.00;;
51495;SDS011;37572;52.094;4.870;2024-03-22T05:58:08;28.07;;;11.90;;
51495;SDS011;37572;52.094;4.870;2024-03-22T06:00:34;31.85;;;12.45;;
51495;SDS011;37572;52.094;4.870;2024-03-22T06:02:59;26.33;;;11.32;;
51495;SDS011;37572;52.094;4.870;2024-03-22T06:05:25;27.35;;;12.15;;
51495;SDS011;37572;52.094;4.870;2024-03-22T06:07:50;26.87;;;11.20;;
51495;SDS011;37572;52.094;4.870;2024-03-22T06:10:15;26.55;;;12.10;;
51495;SDS011;37572;52.094;4.870;2024-03-22T06:12:41;24.38;;;11.25;;
51495;SDS011;37572;52.094;4.870;2024-03-22T06:15:09;25.90;;;10.50;;
51495;SDS011;37572;52.094;4.870;2024-03-22T06:17:34;26.23;;;10.52;;
51495;SDS011;37572;52.094;4.870;2024-03-22T06:20:00;25.83;;;10.63;;
51495;SDS011;37572;52.094;4.870;2024-03-22T06:22:25;27.73;;;11.57;;
51495;SDS011;37572;52.094;4.870;2024-03-22T06:24:51;25.13;;;11.02;;
51495;SDS011;37572;52.094;4.870;2024-03-22T06:27:17;24.98;;;10.38;;
51495;SDS011;37572;52.094;4.870;2024-03-22T06:29:42;27.63;;;11.30;;
51495;SDS011;37572;52.094;4.870;2024-03-22T06:32:08;27.15;;;9.50;;
51495;SDS011;37572;52.094;4.870;2024-03-22T06:34:33;25.37;;;10.40;;
51495;SDS011;37572;52.094;4.870;2024-03-22T06:36:58;25.93;;;11.67;;
51495;SDS011;37572;52.094;4.870;2024-03-22T06:39:23;26.63;;;11.65;;
51495;SDS011;37572;52.094;4.870;2024-03-22T06:41:49;23.90;;;10.47;;
51495;SDS011;37572;52.094;4.870;2024-03-22T06:44:14;26.13;;;12.07;;
51495;SDS011;37572;52.094;4.870;2024-03-22T06:46:39;29.57;;;10.80;;
51495;SDS011;37572;52.094;4.870;2024-03-22T06:49:05;29.33;;;10.70;;
51495;SDS011;37572;52.094;4.870;2024-03-22T06:51:30;24.13;;;10.93;;
51495;SDS011;37572;52.094;4.870;2024-03-22T06:53:55;25.70;;;10.47;;
51495;SDS011;37572;52.094;4.870;2024-03-22T06:56:21;24.47;;;11.43;;
51495;SDS011;37572;52.094;4.870;2024-03-22T06:58:46;30.20;;;9.85;;
51495;SDS011;37572;52.094;4.870;2024-03-22T07:01:12;26.23;;;10.48;;
51495;SDS011;37572;52.094;4.870;2024-03-22T07:03:37;24.15;;;9.15;;
51495;SDS011;37572;52.094;4.870;2024-03-22T07:06:02;22.85;;;10.13;;
51495;SDS011;37572;52.094;4.870;2024-03-22T07:08:28;22.95;;;8.73;;
51495;SDS011;37572;52.094;4.870;2024-03-22T07:10:53;23.50;;;9.68;;
51495;SDS011;37572;52.094;4.870;2024-03-22T07:13:19;26.67;;;10.75;;
51495;SDS011;37572;52.094;4.870;2024-03-22T07:15:45;23.00;;;10.07;;
51495;SDS011;37572;52.094;4.870;2024-03-22T07:18:12;28.08;;;10.90;;
51495;SDS011;37572;52.094;4.870;2024-03-22T07:20:38;22.98;;;8.85;;
51495;SDS011;37572;52.094;4.870;2024-03-22T07:23:03;23.27;;;10.73;;
51495;SDS011;37572;52.094;4.870;2024-03-22T07:25:29;25.05;;;9.85;;
51495;SDS011;37572;52.094;4.870;2024-03-22T07:27:54;24.13;;;9.13;;
51495;SDS011;37572;52.094;4.870;2024-03-22T07:30:20;26.50;;;11.00;;
51495;SDS011;37572;52.094;4.870;2024-03-22T07:32:46;27.65;;;10.48;;
51495;SDS011;37572;52.094;4.870;2024-03-22T07:35:12;25.65;;;9.07;;
51495;SDS011;37572;52.094;4.870;2024-03-22T07:37:37;21.90;;;9.60;;
51495;SDS011;37572;52.094;4.870;2024-03-22T07:40:03;24.20;;;9.40;;
51495;SDS011;37572;52.094;4.870;2024-03-22T07:42:30;24.05;;;10.13;;
51495;SDS011;37572;52.094;4.870;2024-03-22T07:44:55;24.15;;;9.52;;
51495;SDS011;37572;52.094;4.870;2024-03-22T07:47:21;19.07;;;8.97;;
51495;SDS011;37572;52.094;4.870;2024-03-22T07:49:46;20.20;;;9.33;;
51495;SDS011;37572;52.094;4.870;2024-03-22T07:52:11;22.13;;;8.50;;
51495;SDS011;37572;52.094;4.870;2024-03-22T07:54:36;19.42;;;8.73;;
51495;SDS011;37572;52.094;4.870;2024-03-22T07:57:02;22.10;;;9.40;;
51495;SDS011;37572;52.094;4.870;2024-03-22T07:59:28;23.90;;;9.85;;
51495;SDS011;37572;52.094;4.870;2024-03-22T08:01:54;20.27;;;9.38;;
51495;SDS011;37572;52.094;4.870;2024-03-22T08:04:19;22.83;;;9.33;;
51495;SDS011;37572;52.094;4.870;2024-03-22T08:06:45;27.13;;;8.80;;
51495;SDS011;37572;52.094;4.870;2024-03-22T08:09:11;20.85;;;9.07;;
51495;SDS011;37572;52.094;4.870;2024-03-22T08:11:36;25.08;;;9.32;;
51495;SDS011;37572;52.094;4.870;2024-03-22T08:14:01;18.90;;;8.80;;
51495;SDS011;37572;52.094;4.870;2024-03-22T08:16:28;26.35;;;8.82;;
51495;SDS011;37572;52.094;4.870;2024-03-22T08:18:54;26.45;;;9.30;;
51495;SDS011;37572;52.094;4.870;2024-03-22T08:21:19;22.27;;;9.47;;
51495;SDS011;37572;52.094;4.870;2024-03-22T08:23:45;22.40;;;8.77;;
51495;SDS011;37572;52.094;4.870;2024-03-22T08:26:10;26.70;;;10.20;;
51495;SDS011;37572;52.094;4.870;2024-03-22T08:28:35;25.13;;;9.50;;
51495;SDS011;37572;52.094;4.870;2024-03-22T08:31:04;23.07;;;8.63;;
51495;SDS011;37572;52.094;4.870;2024-03-22T08:33:30;17.35;;;8.05;;
51495;SDS011;37572;52.094;4.870;2024-03-22T08:35:55;21.10;;;7.95;;
51495;SDS011;37572;52.094;4.870;2024-03-22T08:38:21;24.90;;;8.85;;
51495;SDS011;37572;52.094;4.870;2024-03-22T08:40:46;20.90;;;9.00;;
51495;SDS011;37572;52.094;4.870;2024-03-22T08:43:11;25.03;;;9.40;;
51495;SDS011;37572;52.094;4.870;2024-03-22T08:45:36;24.17;;;9.50;;
51495;SDS011;37572;52.094;4.870;2024-03-22T08:48:02;21.27;;;8.53;;
51495;SDS011;37572;52.094;4.870;2024-03-22T08:50:27;21.08;;;8.43;;
51495;SDS011;37572;52.094;4.870;2024-03-22T08:52:53;25.90;;;9.98;;
51495;SDS011;37572;52.094;4.870;2024-03-22T08:55:18;20.83;;;8.90;;
51495;SDS011;37572;52.094;4.870;2024-03-22T08:57:43;19.27;;;8.35;;
51495;SDS011;37572;52.094;4.870;2024-03-22T09:00:09;23.03;;;9.63;;
51495;SDS011;37572;52.094;4.870;2024-03-22T09:02:35;26.35;;;9.90;;
51495;SDS011;37572;52.094;4.870;2024-03-22T09:05:01;18.05;;;8.45;;
51495;SDS011;37572;52.094;4.870;2024-03-22T09:07:26;24.45;;;9.75;;
51495;SDS011;37572;52.094;4.870;2024-03-22T09:09:52;22.07;;;9.23;;
51495;SDS011;37572;52.094;4.870;2024-03-22T09:12:18;21.08;;;10.30;;
51495;SDS011;37572;52.094;4.870;2024-03-22T09:14:44;19.63;;;8.55;;
51495;SDS011;37572;52.094;4.870;2024-03-22T09:17:09;22.40;;;9.70;;
51495;SDS011;37572;52.094;4.870;2024-03-22T09:19:34;19.17;;;10.10;;
51495;SDS011;37572;52.094;4.870;2024-03-22T09:21:59;22.90;;;10.67;;
51495;SDS011;37572;52.094;4.870;2024-03-22T09:24:25;21.37;;;10.27;;
51495;SDS011;37572;52.094;4.870;2024-03-22T09:26:50;26.37;;;10.97;;
51495;SDS011;37572;52.094;4.870;2024-03-22T09:29:15;24.57;;;10.93;;
51495;SDS011;37572;52.094;4.870;2024-03-22T09:31:41;21.50;;;11.23;;
51495;SDS011;37572;52.094;4.870;2024-03-22T09:34:06;21.58;;;9.95;;
51495;SDS011;37572;52.094;4.870;2024-03-22T09:36:31;22.97;;;10.07;;
51495;SDS011;37572;52.094;4.870;2024-03-22T09:39:00;24.48;;;10.90;;
51495;SDS011;37572;52.094;4.870;2024-03-22T09:41:26;23.25;;;11.45;;
51495;SDS011;37572;52.094;4.870;2024-03-22T09:43:51;21.87;;;10.53;;
51495;SDS011;37572;52.094;4.870;2024-03-22T09:46:18;24.30;;;11.05;;
51495;SDS011;37572;52.094;4.870;2024-03-22T09:48:44;25.58;;;10.90;;
51495;SDS011;37572;52.094;4.870;2024-03-22T09:51:11;30.38;;;12.18;;
51495;SDS011;37572;52.094;4.870;2024-03-22T09:53:37;26.20;;;12.27;;
51495;SDS011;37572;52.094;4.870;2024-03-22T09:56:04;26.45;;;12.60;;
51495;SDS011;37572;52.094;4.870;2024-03-22T09:58:30;25.05;;;12.18;;
51495;SDS011;37572;52.094;4.870;2024-03-22T10:00:56;29.40;;;12.27;;
51495;SDS011;37572;52.094;4.870;2024-03-22T10:03:25;27.88;;;12.82;;
51495;SDS011;37572;52.094;4.870;2024-03-22T10:05:51;26.50;;;12.10;;
51495;SDS011;37572;52.094;4.870;2024-03-22T10:08:16;23.90;;;12.53;;
51495;SDS011;37572;52.094;4.870;2024-03-22T10:10:41;28.23;;;12.37;;
51495;SDS011;37572;52.094;4.870;2024-03-22T10:13:06;25.00;;;13.27;;
51495;SDS011;37572;52.094;4.870;2024-03-22T10:15:32;24.87;;;12.17;;
51495;SDS011;37572;52.094;4.870;2024-03-22T10:17:57;25.50;;;11.80;;
51495;SDS011;37572;52.094;4.870;2024-03-22T10:20:23;23.95;;;11.55;;
51495;SDS011;37572;52.094;4.870;2024-03-22T10:22:50;25.65;;;12.88;;
51495;SDS011;37572;52.094;4.870;2024-03-22T10:27:45;21.00;;;11.10;;
51495;SDS011;37572;52.094;4.870;2024-03-22T10:30:11;19.95;;;10.15;;
51495;SDS011;37572;52.094;4.870;2024-03-22T10:32:40;20.25;;;10.30;;
51495;SDS011;37572;52.094;4.870;2024-03-22T10:35:05;20.38;;;10.75;;
51495;SDS011;37572;52.094;4.870;2024-03-22T10:37:32;19.15;;;11.25;;
51495;SDS011;37572;52.094;4.870;2024-03-22T10:40:03;19.90;;;9.75;;
51495;SDS011;37572;52.094;4.870;2024-03-22T10:42:32;18.98;;;9.77;;
51495;SDS011;37572;52.094;4.870;2024-03-22T10:45:05;17.20;;;9.52;;
51495;SDS011;37572;52.094;4.870;2024-03-22T10:47:32;16.10;;;8.35;;
51495;SDS011;37572;52.094;4.870;2024-03-22T10:50:02;16.80;;;8.52;;
51495;SDS011;37572;52.094;4.870;2024-03-22T10:52:33;18.00;;;9.38;;
51495;SDS011;37572;52.094;4.870;2024-03-22T10:55:03;16.55;;;8.38;;
51495;SDS011;37572;52.094;4.870;2024-03-22T10:57:31;13.80;;;7.70;;
51495;SDS011;37572;52.094;4.870;2024-03-22T11:00:01;18.30;;;8.55;;
51495;SDS011;37572;52.094;4.870;2024-03-22T11:02:28;18.13;;;8.13;;
51495;SDS011;37572;52.094;4.870;2024-03-22T11:04:57;17.00;;;7.57;;
51495;SDS011;37572;52.094;4.870;2024-03-22T11:07:22;15.75;;;7.60;;
51495;SDS011;37572;52.094;4.870;2024-03-22T11:09:53;14.23;;;9.20;;
51495;SDS011;37572;52.094;4.870;2024-03-22T11:12:21;14.93;;;7.47;;
51495;SDS011;37572;52.094;4.870;2024-03-22T11:14:46;14.32;;;7.18;;
51495;SDS011;37572;52.094;4.870;2024-03-22T11:17:12;13.93;;;7.20;;
51495;SDS011;37572;52.094;4.870;2024-03-22T11:19:38;15.93;;;7.95;;
51495;SDS011;37572;52.094;4.870;2024-03-22T11:22:04;13.65;;;7.82;;
51495;SDS011;37572;52.094;4.870;2024-03-22T11:24:33;13.38;;;7.57;;
51495;SDS011;37572;52.094;4.870;2024-03-22T11:26:58;13.00;;;7.30;;
51495;SDS011;37572;52.094;4.870;2024-03-22T11:29:24;12.53;;;8.33;;
51495;SDS011;37572;52.094;4.870;2024-03-22T11:31:50;14.75;;;7.95;;
51495;SDS011;37572;52.094;4.870;2024-03-22T11:34:15;15.73;;;8.00;;
51495;SDS011;37572;52.094;4.870;2024-03-22T11:36:40;15.93;;;8.83;;
51495;SDS011;37572;52.094;4.870;2024-03-22T11:39:05;15.13;;;8.40;;
51495;SDS011;37572;52.094;4.870;2024-03-22T11:41:31;18.23;;;9.30;;
51495;SDS011;37572;52.094;4.870;2024-03-22T11:43:57;18.83;;;10.02;;
51495;SDS011;37572;52.094;4.870;2024-03-22T11:46:25;18.70;;;9.25;;
51495;SDS011;37572;52.094;4.870;2024-03-22T11:48:52;18.98;;;9.50;;
51495;SDS011;37572;52.094;4.870;2024-03-22T11:51:18;18.55;;;9.23;;
51495;SDS011;37572;52.094;4.870;2024-03-22T11:53:53;19.40;;;9.30;;
51495;SDS011;37572;52.094;4.870;2024-03-22T11:56:20;20.70;;;10.77;;
51495;SDS011;37572;52.094;4.870;2024-03-22T11:58:46;20.30;;;11.43;;
51495;SDS011;37572;52.094;4.870;2024-03-22T12:01:13;21.60;;;10.80;;
51495;SDS011;37572;52.094;4.870;2024-03-22T12:03:40;19.85;;;11.00;;
51495;SDS011;37572;52.094;4.870;2024-03-22T12:06:08;23.17;;;11.18;;
51495;SDS011;37572;52.094;4.870;2024-03-22T12:08:34;19.35;;;10.43;;
51495;SDS011;37572;52.094;4.870;2024-03-22T12:11:00;19.87;;;9.23;;
51495;SDS011;37572;52.094;4.870;2024-03-22T12:13:25;20.75;;;9.65;;
51495;SDS011;37572;52.094;4.870;2024-03-22T12:15:50;23.70;;;10.53;;
51495;SDS011;37572;52.094;4.870;2024-03-22T12:18:16;22.58;;;9.85;;
51495;SDS011;37572;52.094;4.870;2024-03-22T12:20:41;21.38;;;10.45;;
51495;SDS011;37572;52.094;4.870;2024-03-22T12:23:06;19.67;;;9.90;;
51495;SDS011;37572;52.094;4.870;2024-03-22T12:25:32;16.73;;;8.53;;
51495;SDS011;37572;52.094;4.870;2024-03-22T12:27:57;19.93;;;9.27;;
51495;SDS011;37572;52.094;4.870;2024-03-22T12:30:22;14.20;;;8.03;;
51495;SDS011;37572;52.094;4.870;2024-03-22T12:32:48;16.93;;;9.20;;
51495;SDS011;37572;52.094;4.870;2024-03-22T12:35:13;17.30;;;8.38;;
51495;SDS011;37572;52.094;4.870;2024-03-22T12:37:38;21.17;;;9.90;;
51495;SDS011;37572;52.094;4.870;2024-03-22T12:40:04;15.55;;;8.48;;
51495;SDS011;37572;52.094;4.870;2024-03-22T12:42:33;16.92;;;9.18;;
51495;SDS011;37572;52.094;4.870;2024-03-22T12:44:58;18.93;;;9.23;;
51495;SDS011;37572;52.094;4.870;2024-03-22T12:47:23;17.53;;;8.63;;
51495;SDS011;37572;52.094;4.870;2024-03-22T12:49:49;15.67;;;7.20;;
51495;SDS011;37572;52.094;4.870;2024-03-22T12:52:14;14.07;;;7.13;;
51495;SDS011;37572;52.094;4.870;2024-03-22T12:54:39;10.47;;;5.50;;
51495;SDS011;37572;52.094;4.870;2024-03-22T12:57:04;11.70;;;5.90;;
51495;SDS011;37572;52.094;4.870;2024-03-22T12:59:30;12.37;;;7.00;;
51495;SDS011;37572;52.094;4.870;2024-03-22T13:01:55;11.80;;;5.47;;
51495;SDS011;37572;52.094;4.870;2024-03-22T13:04:20;11.57;;;5.83;;
51495;SDS011;37572;52.094;4.870;2024-03-22T13:06:45;15.20;;;7.03;;
51495;SDS011;37572;52.094;4.870;2024-03-22T13:09:11;14.82;;;6.88;;
51495;SDS011;37572;52.094;4.870;2024-03-22T13:11:37;17.48;;;7.78;;
51495;SDS011;37572;52.094;4.870;2024-03-22T13:14:02;18.40;;;7.77;;
51495;SDS011;37572;52.094;4.870;2024-03-22T13:16:28;16.40;;;8.15;;
51495;SDS011;37572;52.094;4.870;2024-03-22T13:18:53;17.00;;;7.90;;
51495;SDS011;37572;52.094;4.870;2024-03-22T13:21:18;19.75;;;8.48;;
51495;SDS011;37572;52.094;4.870;2024-03-22T13:23:44;14.18;;;7.55;;
51495;SDS011;37572;52.094;4.870;2024-03-22T13:26:09;15.50;;;8.05;;
51495;SDS011;37572;52.094;4.870;2024-03-22T13:28:35;16.83;;;8.77;;
51495;SDS011;37572;52.094;4.870;2024-03-22T13:31:01;16.70;;;8.68;;
51495;SDS011;37572;52.094;4.870;2024-03-22T13:33:33;17.58;;;8.32;;
51495;SDS011;37572;52.094;4.870;2024-03-22T13:35:59;15.85;;;8.35;;
51495;SDS011;37572;52.094;4.870;2024-03-22T13:38:24;15.82;;;8.20;;
51495;SDS011;37572;52.094;4.870;2024-03-22T13:40:58;21.75;;;8.50;;
51495;SDS011;37572;52.094;4.870;2024-03-22T13:43:25;16.25;;;8.38;;
51495;SDS011;37572;52.094;4.870;2024-03-22T13:45:52;15.38;;;8.73;;
51495;SDS011;37572;52.094;4.870;2024-03-22T13:48:21;17.45;;;8.25;;
51495;SDS011;37572;52.094;4.870;2024-03-22T13:50:49;16.73;;;8.50;;
51495;SDS011;37572;52.094;4.870;2024-03-22T13:53:18;15.40;;;7.68;;
51495;SDS011;37572;52.094;4.870;2024-03-22T13:55:43;15.05;;;6.90;;
51495;SDS011;37572;52.094;4.870;2024-03-22T13:58:09;16.13;;;6.90;;
51495;SDS011;37572;52.094;4.870;2024-03-22T14:00:34;16.83;;;7.45;;
51495;SDS011;37572;52.094;4.870;2024-03-22T14:03:00;16.77;;;7.45;;
51495;SDS011;37572;52.094;4.870;2024-03-22T14:05:26;19.13;;;7.45;;
51495;SDS011;37572;52.094;4.870;2024-03-22T14:07:51;16.53;;;8.30;;
51495;SDS011;37572;52.094;4.870;2024-03-22T14:10:16;16.43;;;7.63;;
51495;SDS011;37572;52.094;4.870;2024-03-22T14:12:42;14.68;;;7.45;;
51495;SDS011;37572;52.094;4.870;2024-03-22T14:15:08;14.50;;;7.00;;
51495;SDS011;37572;52.094;4.870;2024-03-22T14:17:34;15.13;;;7.18;;
51495;SDS011;37572;52.094;4.870;2024-03-22T14:19:59;16.47;;;8.17;;
51495;SDS011;37572;52.094;4.870;2024-03-22T14:22:25;17.90;;;8.20;;